createdAt,value
2022-12-20T00:01:53.111Z,98090.41
2022-12-20T00:04:21.004Z,98094.88
2022-12-20T00:06:48.802Z,98097.56
2022-12-20T00:09:16.564Z,98089.72
2022-12-20T00:11:44.413Z,98073.59
2022-12-20T00:14:12.225Z,98068.97
2022-12-20T00:16:40.000Z,98075.97
2022-12-20T00:19:08.185Z,98084.94
2022-12-20T00:21:36.606Z,98083.28
2022-12-20T00:24:06.340Z,98071.09
2022-12-20T00:26:35.733Z,98063.41
2022-12-20T00:29:04.778Z,98054.75
2022-12-20T00:31:33.674Z,98060.75
2022-12-20T00:34:02.275Z,98051.91
2022-12-20T00:36:32.694Z,98062.41
2022-12-20T00:39:01.399Z,98055.25
2022-12-20T00:41:33.029Z,98051.63
2022-12-20T00:44:02.779Z,98051.78
2022-12-20T00:46:32.067Z,98050.41
2022-12-20T00:49:00.323Z,98074.47
2022-12-20T00:51:30.429Z,98055.03
2022-12-20T00:53:58.302Z,98045.06
2022-12-20T00:56:26.758Z,98058.09
2022-12-20T00:58:59.784Z,98054.44
2022-12-20T01:01:32.358Z,98052.59
2022-12-20T01:04:01.019Z,98065.91
2022-12-20T01:06:30.174Z,98083.00
2022-12-20T01:08:58.660Z,98082.88
2022-12-20T01:11:33.374Z,98074.88
2022-12-20T01:14:05.969Z,98066.06
2022-12-20T01:16:45.545Z,98072.91
2022-12-20T01:19:18.487Z,98057.78
2022-12-20T01:21:47.170Z,98064.78
2022-12-20T01:24:17.948Z,98068.28
2022-12-20T01:26:46.638Z,98071.50
2022-12-20T01:29:15.179Z,98058.91
2022-12-20T01:31:44.052Z,98049.94
2022-12-20T01:34:12.407Z,98057.75
2022-12-20T01:36:41.002Z,98054.94
2022-12-20T01:39:13.532Z,98052.69
2022-12-20T01:41:43.153Z,98043.84
2022-12-20T01:44:17.020Z,98052.97
2022-12-20T01:46:49.134Z,98057.47
2022-12-20T01:49:44.925Z,98055.78
2022-12-20T01:52:20.606Z,98062.94
2022-12-20T01:55:05.742Z,98061.28
2022-12-20T01:57:39.895Z,98047.50
2022-12-20T02:00:10.940Z,98043.53
2022-12-20T02:02:43.851Z,98040.19
2022-12-20T02:05:14.736Z,98040.34
2022-12-20T02:07:48.366Z,98026.34
2022-12-20T02:10:18.966Z,98014.88
2022-12-20T02:12:48.653Z,98017.28
2022-12-20T02:15:51.914Z,98014.91
2022-12-20T02:18:23.114Z,98021.91
2022-12-20T02:21:21.412Z,98025.28
2022-12-20T02:24:13.732Z,98008.19
2022-12-20T02:26:58.968Z,98019.53
2022-12-20T02:29:40.156Z,98014.47
2022-12-20T02:32:24.920Z,98018.16
2022-12-20T02:34:54.878Z,98021.22
2022-12-20T02:37:22.611Z,98011.72
2022-12-20T02:39:50.705Z,98006.69
2022-12-20T02:42:24.184Z,97998.00
2022-12-20T02:45:17.004Z,97995.53
2022-12-20T02:48:18.685Z,98002.97
2022-12-20T02:50:50.125Z,98000.16
2022-12-20T02:53:18.535Z,97997.78
2022-12-20T02:56:36.140Z,97986.31
2022-12-20T02:59:16.943Z,97981.34
2022-12-20T03:01:55.507Z,97979.56
2022-12-20T03:04:28.772Z,97977.72
2022-12-20T03:07:03.792Z,97985.03
2022-12-20T03:09:35.134Z,97985.31
2022-12-20T03:12:03.843Z,97976.38
2022-12-20T03:14:34.388Z,97975.91
2022-12-20T03:17:05.467Z,97975.22
2022-12-20T03:19:33.512Z,97984.56
2022-12-20T03:22:01.641Z,97978.94
2022-12-20T03:24:32.684Z,97973.16
2022-12-20T03:27:00.944Z,97971.91
2022-12-20T03:29:29.197Z,97965.47
2022-12-20T03:31:57.205Z,97957.00
2022-12-20T03:34:25.039Z,97959.88
2022-12-20T03:36:52.771Z,97967.72
2022-12-20T03:39:20.568Z,97977.06
2022-12-20T03:41:51.693Z,97970.91
2022-12-20T03:44:19.927Z,97967.78
2022-12-20T03:46:47.863Z,97971.66
2022-12-20T03:49:15.902Z,97959.72
2022-12-20T03:51:48.688Z,97966.25
2022-12-20T03:54:16.588Z,97948.00
2022-12-20T03:57:02.288Z,97948.53
2022-12-20T03:59:31.450Z,97943.88
2022-12-20T04:02:00.617Z,97943.41
2022-12-20T04:04:30.590Z,97939.63
2022-12-20T04:06:58.351Z,97941.78
2022-12-20T04:09:26.594Z,97938.66
2022-12-20T04:12:00.057Z,97944.34
2022-12-20T04:14:28.492Z,97941.38
2022-12-20T04:16:56.469Z,97956.38
2022-12-20T04:19:25.051Z,97949.19
2022-12-20T04:21:52.841Z,97957.19
2022-12-20T04:24:21.344Z,97959.84
2022-12-20T04:26:59.327Z,97959.03
2022-12-20T04:29:27.820Z,97958.06
2022-12-20T04:31:55.674Z,97947.41
2022-12-20T04:34:23.894Z,97940.22
2022-12-20T04:36:51.705Z,97935.56
2022-12-20T04:39:29.490Z,97927.09
2022-12-20T04:42:23.663Z,97919.47
2022-12-20T04:44:52.690Z,97918.81
2022-12-20T04:47:25.314Z,97909.13
2022-12-20T04:49:54.527Z,97901.97
2022-12-20T04:52:47.452Z,97900.31
2022-12-20T04:55:16.447Z,97910.50
2022-12-20T04:57:44.739Z,97906.16
2022-12-20T05:00:15.479Z,97909.78
2022-12-20T05:02:46.777Z,97905.16
2022-12-20T05:05:18.130Z,97904.16
2022-12-20T05:07:53.859Z,97900.66
2022-12-20T05:10:22.459Z,97895.50
2022-12-20T05:12:51.909Z,97898.97
2022-12-20T05:15:31.180Z,97896.00
2022-12-20T05:18:00.541Z,97894.19
2022-12-20T05:20:36.793Z,97897.22
2022-12-20T05:23:23.506Z,97893.38
2022-12-20T05:26:02.694Z,97892.88
2022-12-20T05:28:31.801Z,97896.56
2022-12-20T05:31:00.011Z,97889.91
2022-12-20T05:33:33.822Z,97892.59
2022-12-20T05:36:03.384Z,97885.25
2022-12-20T05:38:31.215Z,97882.75
2022-12-20T05:41:00.813Z,97876.59
2022-12-20T05:43:28.722Z,97877.75
2022-12-20T05:45:57.572Z,97874.22
2022-12-20T05:48:34.409Z,97870.88
2022-12-20T05:51:02.418Z,97873.75
2022-12-20T05:53:31.822Z,97872.88
2022-12-20T05:56:03.794Z,97870.22
2022-12-20T05:58:37.635Z,97864.88
2022-12-20T06:01:09.199Z,97865.75
2022-12-20T06:03:40.866Z,97865.75
2022-12-20T06:06:15.505Z,97877.38
2022-12-20T06:08:46.353Z,97880.06
2022-12-20T06:11:40.578Z,97875.41
2022-12-20T06:14:11.282Z,97873.56
2022-12-20T06:16:44.764Z,97867.25
2022-12-20T06:19:20.918Z,97862.22
2022-12-20T06:21:50.532Z,97866.88
2022-12-20T06:24:25.380Z,97874.88
2022-12-20T06:26:54.414Z,97878.22
2022-12-20T06:29:24.653Z,97886.06
2022-12-20T06:31:59.963Z,97878.72
2022-12-20T06:34:28.375Z,97883.91
2022-12-20T06:36:56.237Z,97890.59
2022-12-20T06:39:28.057Z,97885.94
2022-12-20T06:42:07.142Z,97886.75
2022-12-20T06:44:36.549Z,97894.06
2022-12-20T06:47:04.522Z,97890.41
2022-12-20T06:49:32.299Z,97895.38
2022-12-20T06:52:00.486Z,97891.31
2022-12-20T06:54:43.538Z,97887.09
2022-12-20T06:57:11.368Z,97889.56
2022-12-20T06:59:39.681Z,97880.38
2022-12-20T07:02:09.106Z,97887.31
2022-12-20T07:04:37.860Z,97891.44
2022-12-20T07:07:05.695Z,97887.56
2022-12-20T07:09:34.415Z,97897.19
2022-12-20T07:12:02.253Z,97892.81
2022-12-20T07:14:30.143Z,97874.94
2022-12-20T07:16:57.938Z,97878.03
2022-12-20T07:19:26.103Z,97872.72
2022-12-20T07:21:54.137Z,97873.94
2022-12-20T07:24:22.013Z,97864.34
2022-12-20T07:26:49.829Z,97858.38
2022-12-20T07:29:17.543Z,97863.59
2022-12-20T07:31:45.404Z,97854.84
2022-12-20T07:34:13.190Z,97859.69
2022-12-20T07:36:41.013Z,97862.84
2022-12-20T07:39:09.145Z,97863.91
2022-12-20T07:41:37.142Z,97866.94
2022-12-20T07:44:06.345Z,97869.78
2022-12-20T07:46:34.836Z,97866.81
2022-12-20T07:49:02.834Z,97862.16
2022-12-20T07:51:39.419Z,97858.50
2022-12-20T07:54:24.129Z,97850.34
2022-12-20T07:57:06.263Z,97857.19
2022-12-20T07:59:45.074Z,97863.50
2022-12-20T08:02:20.944Z,97865.50
2022-12-20T08:04:50.762Z,97854.16
2022-12-20T08:07:18.739Z,97853.34
2022-12-20T08:09:47.747Z,97852.47
2022-12-20T08:12:18.441Z,97856.00
2022-12-20T08:14:46.404Z,97845.00
2022-12-20T08:17:14.495Z,97858.19
2022-12-20T08:19:42.327Z,97857.34
2022-12-20T08:22:10.065Z,97844.19
2022-12-20T08:24:37.840Z,97839.53
2022-12-20T08:27:05.716Z,97830.56
2022-12-20T08:29:33.455Z,97835.03
2022-12-20T08:32:01.215Z,97844.84
2022-12-20T08:34:28.964Z,97843.69
2022-12-20T08:36:56.729Z,97844.69
2022-12-20T08:39:24.521Z,97842.72
2022-12-20T08:41:52.296Z,97831.72
2022-12-20T08:44:20.205Z,97826.22
2022-12-20T08:46:47.953Z,97823.25
2022-12-20T08:49:15.743Z,97818.59
2022-12-20T08:51:43.662Z,97814.91
2022-12-20T08:54:11.447Z,97809.44
2022-12-20T08:56:39.222Z,97798.59
2022-12-20T08:59:06.994Z,97792.09
2022-12-20T09:01:35.545Z,97798.09
2022-12-20T09:04:05.059Z,97799.47
2022-12-20T09:06:35.659Z,97812.47
2022-12-20T09:09:04.996Z,97814.31
2022-12-20T09:11:33.198Z,97816.47
2022-12-20T09:14:01.231Z,97801.81
2022-12-20T09:16:31.972Z,97800.66
2022-12-20T09:19:05.834Z,97805.81
2022-12-20T09:21:35.242Z,97802.69
2022-12-20T09:24:03.058Z,97804.53
2022-12-20T09:26:30.971Z,97810.88
2022-12-20T09:28:58.969Z,97808.53
2022-12-20T09:31:27.276Z,97815.38
2022-12-20T09:33:58.011Z,97805.41
2022-12-20T09:36:28.171Z,97793.56
2022-12-20T09:38:56.752Z,97796.22
2022-12-20T09:41:41.618Z,97794.91
2022-12-20T09:44:12.291Z,97790.06
2022-12-20T09:46:41.553Z,97783.03
2022-12-20T09:49:18.098Z,97781.22
2022-12-20T09:52:23.027Z,97791.25
2022-12-20T09:55:35.361Z,97783.25
2022-12-20T09:58:18.630Z,97788.22
2022-12-20T10:00:54.021Z,97804.75
2022-12-20T10:03:27.913Z,97800.75
2022-12-20T10:06:00.719Z,97795.56
2022-12-20T10:09:02.460Z,97800.91
2022-12-20T10:11:57.906Z,97802.22
2022-12-20T10:14:44.328Z,97793.38
2022-12-20T10:17:32.569Z,97786.03
2022-12-20T10:20:21.364Z,97782.91
2022-12-20T10:23:04.547Z,97785.56
2022-12-20T10:25:34.592Z,97783.53
2022-12-20T10:28:12.503Z,97773.69
2022-12-20T10:30:41.377Z,97770.81
2022-12-20T10:33:24.384Z,97770.97
2022-12-20T10:35:55.396Z,97775.44
2022-12-20T10:38:24.273Z,97772.44
2022-12-20T10:41:21.319Z,97777.91
2022-12-20T10:44:17.227Z,97781.56
2022-12-20T10:46:59.318Z,97780.22
2022-12-20T10:49:34.996Z,97768.34
2022-12-20T10:52:08.746Z,97762.00
2022-12-20T10:54:39.167Z,97753.81
2022-12-20T10:57:21.019Z,97753.63
2022-12-20T11:00:06.230Z,97747.94
2022-12-20T11:02:41.968Z,97736.91
2022-12-20T11:05:11.118Z,97728.91
2022-12-20T11:08:34.080Z,97734.25
2022-12-20T11:11:17.841Z,97733.88
2022-12-20T11:13:47.173Z,97731.56
2022-12-20T11:16:36.912Z,97731.56
2022-12-20T11:19:38.217Z,97711.34
2022-12-20T11:22:16.495Z,97720.41
2022-12-20T11:24:53.649Z,97711.91
2022-12-20T11:27:53.238Z,97714.91
2022-12-20T11:30:32.997Z,97723.75
2022-12-20T11:33:07.137Z,97718.75
2022-12-20T11:35:55.799Z,97705.09
2022-12-20T11:38:42.737Z,97682.06
2022-12-20T11:41:33.393Z,97676.88
2022-12-20T11:44:27.796Z,97671.41
2022-12-20T11:46:55.519Z,97669.41
2022-12-20T11:50:09.112Z,97663.75
2022-12-20T11:52:49.986Z,97648.72
2022-12-20T11:55:33.595Z,97657.59
2022-12-20T11:58:19.024Z,97667.91
2022-12-20T12:01:00.131Z,97672.75
2022-12-20T12:03:39.965Z,97687.47
2022-12-20T12:06:16.552Z,97677.97
2022-12-20T12:08:50.901Z,97674.81
2022-12-20T12:12:05.283Z,97676.50
2022-12-20T12:15:15.926Z,97655.28
2022-12-20T12:18:19.473Z,97645.91
2022-12-20T12:20:52.994Z,97635.22
2022-12-20T12:23:35.551Z,97638.56
2022-12-20T12:26:31.696Z,97635.88
2022-12-20T12:29:03.902Z,97623.84
2022-12-20T12:31:43.926Z,97630.22
2022-12-20T12:35:04.687Z,97628.69
2022-12-20T12:38:20.606Z,97634.75
2022-12-20T12:41:40.811Z,97627.28
2022-12-20T12:44:23.717Z,97627.06
2022-12-20T12:47:02.732Z,97621.56
2022-12-20T12:49:33.035Z,97617.53
2022-12-20T12:52:04.772Z,97610.00
2022-12-20T12:54:40.107Z,97596.97
2022-12-20T12:57:16.484Z,97581.41
2022-12-20T12:59:51.810Z,97560.53
2022-12-20T13:02:33.115Z,97566.31
2022-12-20T13:05:06.963Z,97563.66
2022-12-20T13:07:35.385Z,97562.81
2022-12-20T13:10:29.664Z,97559.69
2022-12-20T13:13:01.361Z,97567.34
2022-12-20T13:15:30.341Z,97584.91
2022-12-20T13:18:10.997Z,97590.25
2022-12-20T13:20:45.152Z,97594.41
2022-12-20T13:23:24.160Z,97596.91
2022-12-20T13:25:52.966Z,97596.25
2022-12-20T13:28:24.151Z,97592.59
2022-12-20T13:31:01.330Z,97601.44
2022-12-20T13:33:44.790Z,97589.91
2022-12-20T13:36:12.401Z,97589.53
2022-12-20T13:38:46.089Z,97580.53
2022-12-20T13:41:49.561Z,97571.66
2022-12-20T13:44:36.552Z,97569.69
2022-12-20T13:47:40.821Z,97572.69
2022-12-20T13:50:40.471Z,97571.03
2022-12-20T13:53:19.171Z,97569.00
2022-12-20T13:55:48.849Z,97564.69
2022-12-20T13:58:25.027Z,97556.66
2022-12-20T14:01:03.530Z,97558.13
2022-12-20T14:03:32.127Z,97549.47
2022-12-20T14:06:09.254Z,97534.94
2022-12-20T14:08:43.843Z,97534.41
2022-12-20T14:11:27.100Z,97537.72
2022-12-20T14:14:04.884Z,97534.31
2022-12-20T14:16:33.710Z,97535.16
2022-12-20T14:19:03.318Z,97538.84
2022-12-20T14:21:35.375Z,97545.19
2022-12-20T14:24:04.473Z,97540.69
2022-12-20T14:26:51.897Z,97541.34
2022-12-20T14:29:28.972Z,97539.31
2022-12-20T14:31:57.317Z,97544.84
2022-12-20T14:34:30.906Z,97538.47
2022-12-20T14:37:31.226Z,97543.47
2022-12-20T14:40:20.519Z,97534.25
2022-12-20T14:42:48.434Z,97517.88
2022-12-20T14:45:19.574Z,97540.91
2022-12-20T14:48:07.421Z,97543.41
2022-12-20T14:50:40.724Z,97549.41
2022-12-20T14:53:27.629Z,97547.56
2022-12-20T14:55:55.844Z,97526.53
2022-12-20T14:58:34.631Z,97512.69
2022-12-20T15:01:27.202Z,97513.44
2022-12-20T15:03:58.741Z,97514.50
2022-12-20T15:06:37.680Z,97507.38
2022-12-20T15:09:05.567Z,97503.72
2022-12-20T15:11:36.608Z,97502.50
2022-12-20T15:14:39.394Z,97497.34
2022-12-20T15:17:14.695Z,97498.84
2022-12-20T15:19:43.455Z,97499.91
2022-12-20T15:22:18.703Z,97498.13
2022-12-20T15:24:46.480Z,97505.50
2022-12-20T15:27:15.454Z,97511.34
2022-12-20T15:29:43.528Z,97512.25
2022-12-20T15:32:30.930Z,97520.72
2022-12-20T15:34:58.978Z,97518.38
2022-12-20T15:37:26.672Z,97505.50
2022-12-20T15:39:55.369Z,97517.47
2022-12-20T15:42:24.463Z,97515.63
2022-12-20T15:44:52.334Z,97508.28
2022-12-20T15:47:20.164Z,97499.25
2022-12-20T15:49:50.401Z,97495.56
2022-12-20T15:52:23.958Z,97498.06
2022-12-20T15:54:52.016Z,97498.88
2022-12-20T15:57:20.927Z,97501.94
2022-12-20T16:00:00.354Z,97495.56
2022-12-20T16:02:31.220Z,97501.75
2022-12-20T16:04:59.534Z,97504.06
2022-12-20T16:07:27.931Z,97503.22
2022-12-20T16:09:55.683Z,97505.66
2022-12-20T16:12:29.618Z,97501.69
2022-12-20T16:14:57.482Z,97508.22
2022-12-20T16:17:25.320Z,97506.78
2022-12-20T16:19:53.124Z,97509.56
2022-12-20T16:22:23.389Z,97501.84
2022-12-20T16:24:51.878Z,97502.97
2022-12-20T16:27:20.463Z,97511.06
2022-12-20T16:29:48.361Z,97516.25
2022-12-20T16:32:21.922Z,97513.41
2022-12-20T16:34:51.095Z,97513.72
2022-12-20T16:37:18.929Z,97510.66
2022-12-20T16:39:46.688Z,97506.34
2022-12-20T16:42:17.485Z,97498.41
2022-12-20T16:44:46.296Z,97505.53
2022-12-20T16:47:15.090Z,97512.00
2022-12-20T16:49:51.806Z,97503.97
2022-12-20T16:52:22.180Z,97508.41
2022-12-20T16:54:50.827Z,97503.34
2022-12-20T16:57:19.606Z,97502.94
2022-12-20T16:59:47.324Z,97506.28
2022-12-20T17:02:34.838Z,97500.91
2022-12-20T17:05:03.004Z,97506.75
2022-12-20T17:07:31.317Z,97495.22
2022-12-20T17:10:12.799Z,97490.69
2022-12-20T17:12:40.592Z,97497.88
2022-12-20T17:15:29.339Z,97504.25
2022-12-20T17:17:58.087Z,97496.38
2022-12-20T17:20:26.031Z,97501.75
2022-12-20T17:25:42.045Z,97486.72
2022-12-20T17:28:09.795Z,97485.25
2022-12-20T17:30:37.710Z,97474.72
2022-12-20T17:33:05.709Z,97479.06
2022-12-20T17:35:33.698Z,97475.56
2022-12-20T17:38:02.008Z,97478.59
2022-12-20T17:40:30.068Z,97481.25
2022-12-20T17:42:57.796Z,97483.28
2022-12-20T17:45:29.007Z,97468.28
2022-12-20T17:47:58.447Z,97472.81
2022-12-20T17:50:26.605Z,97481.81
2022-12-20T17:52:55.479Z,97470.47
2022-12-20T17:55:27.268Z,97462.47
2022-12-20T17:57:55.735Z,97453.16
2022-12-20T18:00:39.319Z,97449.44
2022-12-20T18:03:07.689Z,97444.75
2022-12-20T18:05:35.628Z,97446.41
2022-12-20T18:08:03.386Z,97442.91
2022-12-20T18:10:31.372Z,97440.88
2022-12-20T18:12:59.130Z,97441.72
2022-12-20T18:15:26.891Z,97438.03
2022-12-20T18:17:54.627Z,97431.00
2022-12-20T18:20:22.338Z,97443.75
2022-12-20T18:22:50.077Z,97444.75
2022-12-20T18:25:18.393Z,97460.34
2022-12-20T18:27:46.216Z,97466.06
2022-12-20T18:30:14.394Z,97458.59
2022-12-20T18:32:42.192Z,97459.72
2022-12-20T18:35:10.575Z,97464.19
2022-12-20T18:37:38.409Z,97464.66
2022-12-20T18:40:09.130Z,97456.81
2022-12-20T18:42:37.129Z,97452.50
2022-12-20T18:45:05.478Z,97445.78
2022-12-20T18:47:33.224Z,97437.75
2022-12-20T18:50:00.915Z,97439.22
2022-12-20T18:52:28.691Z,97442.53
2022-12-20T18:54:56.698Z,97440.50
2022-12-20T18:57:24.583Z,97442.06
2022-12-20T18:59:52.424Z,97450.38
2022-12-20T19:02:20.354Z,97450.38
2022-12-20T19:04:48.190Z,97457.13
2022-12-20T19:07:16.246Z,97465.78
2022-12-20T19:09:44.038Z,97461.63
2022-12-20T19:12:12.103Z,97459.78
2022-12-20T19:14:39.888Z,97460.44
2022-12-20T19:17:07.741Z,97463.09
2022-12-20T19:19:35.469Z,97469.47
2022-12-20T19:22:03.292Z,97465.59
2022-12-20T19:24:30.978Z,97454.44
2022-12-20T19:26:58.752Z,97455.44
2022-12-20T19:29:26.936Z,97453.22
2022-12-20T19:31:55.454Z,97457.41
2022-12-20T19:34:23.301Z,97451.66
2022-12-20T19:36:52.945Z,97444.66
2022-12-20T19:39:26.324Z,97442.63
2022-12-20T19:42:22.476Z,97440.97
2022-12-20T19:44:42.197Z,97426.75
2022-12-20T19:47:09.944Z,97428.78
2022-12-20T19:49:37.736Z,97428.22
2022-12-20T19:52:06.410Z,97422.88
2022-12-20T19:54:35.285Z,97418.00
2022-12-20T19:57:03.237Z,97416.78
2022-12-20T19:59:31.272Z,97426.28
2022-12-20T20:01:59.243Z,97419.91
2022-12-20T20:04:28.018Z,97426.53
2022-12-20T20:06:56.471Z,97420.66
2022-12-20T20:09:24.632Z,97427.28
2022-12-20T20:11:52.354Z,97433.91
2022-12-20T20:14:20.140Z,97434.28
2022-12-20T20:16:48.506Z,97436.78
2022-12-20T20:19:16.397Z,97435.59
2022-12-20T20:21:44.261Z,97436.41
2022-12-20T20:24:12.299Z,97431.69
2022-12-20T20:26:40.011Z,97429.03
2022-12-20T20:29:10.516Z,97434.94
2022-12-20T20:31:38.379Z,97441.59
2022-12-20T20:34:06.412Z,97445.06
2022-12-20T20:36:34.207Z,97444.03
2022-12-20T20:39:02.106Z,97447.38
2022-12-20T20:41:31.443Z,97442.03
2022-12-20T20:43:59.309Z,97447.56
2022-12-20T20:46:27.180Z,97450.25
2022-12-20T20:48:55.104Z,97456.44
2022-12-20T20:51:22.857Z,97462.06
2022-12-20T20:53:50.627Z,97459.22
2022-12-20T20:56:18.464Z,97467.25
2022-12-20T20:58:46.807Z,97467.59
2022-12-20T21:01:14.848Z,97474.81
2022-12-20T21:03:43.099Z,97471.31
2022-12-20T21:08:59.891Z,97473.59
2022-12-20T21:11:28.085Z,97476.44
2022-12-20T21:13:56.047Z,97479.34
2022-12-20T21:16:24.489Z,97480.34
2022-12-20T21:18:54.745Z,97481.16
2022-12-20T21:21:24.508Z,97482.19
2022-12-20T21:23:53.559Z,97483.84
2022-12-20T21:26:22.825Z,97482.19
2022-12-20T21:28:51.808Z,97475.44
2022-12-20T21:31:19.825Z,97475.56
2022-12-20T21:33:47.808Z,97468.75
2022-12-20T21:36:18.716Z,97466.88
2022-12-20T21:38:52.616Z,97454.50
2022-12-20T21:41:23.198Z,97453.16
2022-12-20T21:43:54.572Z,97454.34
2022-12-20T21:46:22.334Z,97461.47
2022-12-20T21:48:50.203Z,97456.81
2022-12-20T21:51:21.703Z,97456.91
2022-12-20T21:53:51.791Z,97451.66
2022-12-20T21:56:21.611Z,97451.03
2022-12-20T21:58:50.812Z,97450.38
2022-12-20T22:01:22.876Z,97444.00
2022-12-20T22:03:57.822Z,97445.03
2022-12-20T22:06:26.134Z,97449.34
2022-12-20T22:08:56.548Z,97449.56
2022-12-20T22:11:25.144Z,97450.38
2022-12-20T22:13:58.047Z,97456.56
2022-12-20T22:16:30.045Z,97461.91
2022-12-20T22:18:59.601Z,97480.50
2022-12-20T22:21:30.757Z,97478.53
2022-12-20T22:24:00.329Z,97480.19
2022-12-20T22:26:31.494Z,97475.66
2022-12-20T22:29:03.256Z,97464.81
2022-12-20T22:31:31.363Z,97466.47
2022-12-20T22:33:59.841Z,97470.81
2022-12-20T22:36:28.816Z,97458.47
2022-12-20T22:38:57.658Z,97457.25
2022-12-20T22:41:29.797Z,97463.59
2022-12-20T22:44:01.656Z,97468.31
2022-12-20T22:46:29.957Z,97470.72
2022-12-20T22:49:01.588Z,97473.72
2022-12-20T22:51:33.258Z,97475.94
2022-12-20T22:54:01.431Z,97470.75
2022-12-20T22:56:29.929Z,97468.94
2022-12-20T22:58:57.722Z,97466.28
2022-12-20T23:01:25.887Z,97468.28
2022-12-20T23:03:53.851Z,97458.59
2022-12-20T23:06:22.211Z,97455.47
2022-12-20T23:08:50.073Z,97451.13
2022-12-20T23:11:43.177Z,97445.81
2022-12-20T23:14:35.693Z,97448.66
2022-12-20T23:17:05.529Z,97454.16
2022-12-20T23:19:52.715Z,97455.19
2022-12-20T23:22:38.454Z,97451.50
2022-12-20T23:25:27.799Z,97447.19
2022-12-20T23:27:55.910Z,97443.47
2022-12-20T23:30:24.501Z,97440.16
2022-12-20T23:32:53.721Z,97437.31
2022-12-20T23:35:21.952Z,97436.09
2022-12-20T23:37:49.728Z,97434.06
2022-12-20T23:40:18.123Z,97427.91
2022-12-20T23:42:46.184Z,97427.44
2022-12-20T23:45:14.371Z,97430.13
2022-12-20T23:47:42.220Z,97445.97
2022-12-20T23:50:10.458Z,97433.25
2022-12-20T23:52:38.265Z,97434.06
2022-12-20T23:55:06.553Z,97427.25
2022-12-20T23:57:34.317Z,97429.59
